sensor_id;sensor_type;location;lat;lon;timestamp;pressure;altitude;pressure_sealevel;temperature;humidity
21664;BME280;10993;52.510;13.456;2022-07-10T00:00:08;-26579.38;;;14.69;77.64
21664;BME280;10993;52.510;13.456;2022-07-10T00:05:09;-26581.09;;;14.75;76.60
21664;BME280;10993;52.510;13.456;2022-07-10T00:10:10;-26590.13;;;15.05;76.02
21664;BME280;10993;52.510;13.456;2022-07-10T00:15:12;-26594.66;;;15.19;73.76
21664;BME280;10993;52.510;13.456;2022-07-10T00:20:13;-26598.38;;;15.32;74.65
21664;BME280;10993;52.510;13.456;2022-07-10T00:25:14;-26601.50;;;15.42;73.98
21664;BME280;10993;52.510;13.456;2022-07-10T00:30:16;-26602.91;;;15.47;73.36
21664;BME280;10993;52.510;13.456;2022-07-10T00:35:16;-26605.06;;;15.54;73.08
21664;BME280;10993;52.510;13.456;2022-07-10T00:40:17;-26606.16;;;15.58;72.87
21664;BME280;10993;52.510;13.456;2022-07-10T00:45:18;-26598.84;;;15.33;73.81
21664;BME280;10993;52.510;13.456;2022-07-10T00:50:19;-26601.03;;;15.41;74.15
21664;BME280;10993;52.510;13.456;2022-07-10T00:55:19;-26601.50;;;15.42;74.06
21664;BME280;10993;52.510;13.456;2022-07-10T01:00:22;-26601.50;;;15.42;73.68
21664;BME280;10993;52.510;13.456;2022-07-10T01:05:22;-26602.13;;;15.44;73.25
21664;BME280;10993;52.510;13.456;2022-07-10T01:10:22;-26599.47;;;15.35;73.54
21664;BME280;10993;52.510;13.456;2022-07-10T01:15:24;-26596.84;;;15.27;73.58
21664;BME280;10993;52.510;13.456;2022-07-10T01:20:29;-26599.78;;;15.36;74.64
21664;BME280;10993;52.510;13.456;2022-07-10T01:25:32;-26599.16;;;15.34;75.27
21664;BME280;10993;52.510;13.456;2022-07-10T01:30:32;-26598.69;;;15.33;75.25
21664;BME280;10993;52.510;13.456;2022-07-10T01:35:33;-26596.84;;;15.27;74.75
21664;BME280;10993;52.510;13.456;2022-07-10T01:40:34;-26602.59;;;15.46;74.95
21664;BME280;10993;52.510;13.456;2022-07-10T01:45:35;-26601.03;;;15.41;75.10
21664;BME280;10993;52.510;13.456;2022-07-10T01:50:35;-26596.38;;;15.25;75.62
21664;BME280;10993;52.510;13.456;2022-07-10T01:55:37;-26595.13;;;15.21;75.97
21664;BME280;10993;52.510;13.456;2022-07-10T02:00:37;-26598.38;;;15.32;75.57
21664;BME280;10993;52.510;13.456;2022-07-10T02:05:38;-26598.38;;;15.32;75.60
21664;BME280;10993;52.510;13.456;2022-07-10T02:10:39;-26596.53;;;15.26;75.61
21664;BME280;10993;52.510;13.456;2022-07-10T02:15:40;-26591.38;;;15.09;76.16
21664;BME280;10993;52.510;13.456;2022-07-10T02:20:40;-26589.81;;;15.03;75.99
21664;BME280;10993;52.510;13.456;2022-07-10T02:25:42;-26587.31;;;14.95;77.55
21664;BME280;10993;52.510;13.456;2022-07-10T02:30:43;-26589.19;;;15.01;77.45
21664;BME280;10993;52.510;13.456;2022-07-10T02:35:43;-26588.72;;;15.00;77.74
21664;BME280;10993;52.510;13.456;2022-07-10T02:40:45;-26588.41;;;14.99;78.56
21664;BME280;10993;52.510;13.456;2022-07-10T02:45:45;-26584.38;;;14.85;80.29
21664;BME280;10993;52.510;13.456;2022-07-10T02:50:46;-26582.34;;;14.79;81.26
21664;BME280;10993;52.510;13.456;2022-07-10T02:55:48;-26577.34;;;14.62;82.41
21664;BME280;10993;52.510;13.456;2022-07-10T03:00:48;-26576.09;;;14.58;83.20
21664;BME280;10993;52.510;13.456;2022-07-10T03:05:48;-26574.06;;;14.51;83.27
21664;BME280;10993;52.510;13.456;2022-07-10T03:10:50;-26575.94;;;14.58;83.58
21664;BME280;10993;52.510;13.456;2022-07-10T03:15:53;-26579.38;;;14.69;82.44
21664;BME280;10993;52.510;13.456;2022-07-10T03:20:53;-26580.31;;;14.72;82.85
21664;BME280;10993;52.510;13.456;2022-07-10T03:25:55;-26579.53;;;14.69;83.40
21664;BME280;10993;52.510;13.456;2022-07-10T03:30:56;-26580.94;;;14.74;82.72
21664;BME280;10993;52.510;13.456;2022-07-10T03:35:56;-26576.72;;;14.60;82.78
21664;BME280;10993;52.510;13.456;2022-07-10T03:40:58;-26583.13;;;14.81;83.29
21664;BME280;10993;52.510;13.456;2022-07-10T03:45:58;-26582.19;;;14.78;83.52
21664;BME280;10993;52.510;13.456;2022-07-10T03:50:59;-26587.78;;;14.97;82.98
21664;BME280;10993;52.510;13.456;2022-07-10T03:56:01;-26584.69;;;14.86;83.20
21664;BME280;10993;52.510;13.456;2022-07-10T04:01:01;-26588.25;;;14.98;83.49
21664;BME280;10993;52.510;13.456;2022-07-10T04:06:02;-26589.66;;;15.03;84.07
21664;BME280;10993;52.510;13.456;2022-07-10T04:11:04;-26591.53;;;15.09;83.93
21664;BME280;10993;52.510;13.456;2022-07-10T04:16:05;-26593.72;;;15.16;84.09
21664;BME280;10993;52.510;13.456;2022-07-10T04:21:06;-26594.97;;;15.20;83.69
21664;BME280;10993;52.510;13.456;2022-07-10T04:26:07;-26601.19;;;15.41;82.07
21664;BME280;10993;52.510;13.456;2022-07-10T04:31:08;-26601.50;;;15.42;81.66
21664;BME280;10993;52.510;13.456;2022-07-10T04:36:08;-26598.06;;;15.31;82.19
21664;BME280;10993;52.510;13.456;2022-07-10T04:41:10;-26595.91;;;15.24;83.16
21664;BME280;10993;52.510;13.456;2022-07-10T04:46:10;-26598.53;;;15.32;83.13
21664;BME280;10993;52.510;13.456;2022-07-10T04:51:10;-26603.06;;;15.47;82.52
21664;BME280;10993;52.510;13.456;2022-07-10T04:56:12;-26608.03;;;15.64;81.08
21664;BME280;10993;52.510;13.456;2022-07-10T05:01:12;-26619.25;;;16.01;78.79
21664;BME280;10993;52.510;13.456;2022-07-10T05:06:13;-26630.75;;;16.39;77.19
21664;BME280;10993;52.510;13.456;2022-07-10T05:11:15;-26628.25;;;16.31;76.77
21664;BME280;10993;52.510;13.456;2022-07-10T05:16:15;-26625.31;;;16.21;78.15
21664;BME280;10993;52.510;13.456;2022-07-10T05:21:16;-26622.66;;;16.12;78.24
21664;BME280;10993;52.510;13.456;2022-07-10T05:26:18;-26622.34;;;16.11;78.87
21664;BME280;10993;52.510;13.456;2022-07-10T05:31:18;-26623.59;;;16.15;79.32
21664;BME280;10993;52.510;13.456;2022-07-10T05:36:18;-26634.00;;;16.50;76.68
21664;BME280;10993;52.510;13.456;2022-07-10T05:41:20;-26640.06;;;16.70;75.35
21664;BME280;10993;52.510;13.456;2022-07-10T05:46:20;-26644.72;;;16.85;75.04
21664;BME280;10993;52.510;13.456;2022-07-10T05:51:21;-26646.91;;;16.93;73.67
21664;BME280;10993;52.510;13.456;2022-07-10T05:56:22;-26652.66;;;17.12;73.76
21664;BME280;10993;52.510;13.456;2022-07-10T06:01:23;-26634.63;;;16.52;75.04
21664;BME280;10993;52.510;13.456;2022-07-10T06:06:24;-26642.25;;;16.77;73.97
21664;BME280;10993;52.510;13.456;2022-07-10T06:11:26;-26646.59;;;16.92;72.91
21664;BME280;10993;52.510;13.456;2022-07-10T06:16:26;-26652.50;;;17.11;73.78
21664;BME280;10993;52.510;13.456;2022-07-10T06:21:26;-26645.03;;;16.86;72.56
21664;BME280;10993;52.510;13.456;2022-07-10T06:26:28;-26647.84;;;16.96;73.96
21664;BME280;10993;52.510;13.456;2022-07-10T06:31:28;-26643.78;;;16.82;73.72
21664;BME280;10993;52.510;13.456;2022-07-10T06:36:29;-26643.16;;;16.80;72.79
21664;BME280;10993;52.510;13.456;2022-07-10T06:41:30;-26660.72;;;17.39;69.56
21664;BME280;10993;52.510;13.456;2022-07-10T06:46:31;-26669.41;;;17.67;67.99
21664;BME280;10993;52.510;13.456;2022-07-10T06:51:31;-26677.63;;;17.95;65.38
21664;BME280;10993;52.510;13.456;2022-07-10T06:56:33;-26678.41;;;17.97;67.48
21664;BME280;10993;52.510;13.456;2022-07-10T07:01:33;-26673.13;;;17.80;66.00
21664;BME280;10993;52.510;13.456;2022-07-10T07:06:34;-26690.66;;;18.38;63.76
21664;BME280;10993;52.510;13.456;2022-07-10T07:11:35;-26717.88;;;19.29;59.46
21664;BME280;10993;52.510;13.456;2022-07-10T07:16:36;-26736.44;;;19.91;57.27
21664;BME280;10993;52.510;13.456;2022-07-10T07:21:42;-26756.81;;;20.59;53.28
21664;BME280;10993;52.510;13.456;2022-07-10T07:27:03;-26773.47;;;21.14;49.79
21664;BME280;10993;52.510;13.456;2022-07-10T07:32:04;-26787.94;;;21.63;48.27
21664;BME280;10993;52.510;13.456;2022-07-10T07:37:04;-26778.84;;;21.32;48.52
21664;BME280;10993;52.510;13.456;2022-07-10T07:42:06;-26764.22;;;20.83;48.03
21664;BME280;10993;52.510;13.456;2022-07-10T07:47:09;-26771.47;;;21.08;47.75
21664;BME280;10993;52.510;13.456;2022-07-10T07:52:10;-26772.53;;;21.11;45.24
21664;BME280;10993;52.510;13.456;2022-07-10T07:57:11;-26806.72;;;22.26;43.06
21664;BME280;10993;52.510;13.456;2022-07-10T08:02:12;-26849.44;;;23.69;39.25
21664;BME280;10993;52.510;13.456;2022-07-10T08:07:12;-26870.75;;;24.41;37.82
21664;BME280;10993;52.510;13.456;2022-07-10T08:12:14;-26900.44;;;25.41;34.86
21664;BME280;10993;52.510;13.456;2022-07-10T08:17:14;-26913.28;;;25.84;33.37
21664;BME280;10993;52.510;13.456;2022-07-10T08:22:15;-26890.50;;;25.07;34.62
21664;BME280;10993;52.510;13.456;2022-07-10T08:27:16;-26946.84;;;26.97;32.36
21664;BME280;10993;52.510;13.456;2022-07-10T08:32:17;-27020.31;;;29.46;27.80
21664;BME280;10993;52.510;13.456;2022-07-10T08:37:17;-27033.03;;;29.90;27.86
21664;BME280;10993;52.510;13.456;2022-07-10T08:42:21;-26868.28;;;24.32;34.09
21664;BME280;10993;52.510;13.456;2022-07-10T08:47:22;-26788.41;;;21.64;41.05
21664;BME280;10993;52.510;13.456;2022-07-10T08:52:26;-26778.56;;;21.31;42.99
21664;BME280;10993;52.510;13.456;2022-07-10T08:57:28;-26781.94;;;21.43;42.14
21664;BME280;10993;52.510;13.456;2022-07-10T09:02:31;-26801.34;;;22.08;41.14
21664;BME280;10993;52.510;13.456;2022-07-10T09:07:34;-26792.88;;;21.79;42.79
21664;BME280;10993;52.510;13.456;2022-07-10T09:12:53;-26781.03;;;21.40;43.09
21664;BME280;10993;52.510;13.456;2022-07-10T09:17:55;-26783.03;;;21.46;42.60
21664;BME280;10993;52.510;13.456;2022-07-10T09:22:57;-26787.03;;;21.60;41.37
21664;BME280;10993;52.510;13.456;2022-07-10T09:27:59;-26812.56;;;22.45;39.55
21664;BME280;10993;52.510;13.456;2022-07-10T09:33:17;-26804.25;;;22.17;38.94
21664;BME280;10993;52.510;13.456;2022-07-10T09:38:18;-26802.88;;;22.13;38.55
21664;BME280;10993;52.510;13.456;2022-07-10T09:43:20;-26848.81;;;23.67;36.03
21664;BME280;10993;52.510;13.456;2022-07-10T09:48:23;-26832.84;;;23.13;36.62
21664;BME280;10993;52.510;13.456;2022-07-10T09:53:23;-26842.06;;;23.44;35.47
21664;BME280;10993;52.510;13.456;2022-07-10T09:58:27;-26862.94;;;24.14;35.81
21664;BME280;10993;52.510;13.456;2022-07-10T10:03:33;-26843.16;;;23.48;36.56
21664;BME280;10993;52.510;13.456;2022-07-10T10:08:37;-26876.25;;;24.59;35.12
21664;BME280;10993;52.510;13.456;2022-07-10T10:13:45;-26851.44;;;23.76;36.54
21664;BME280;10993;52.510;13.456;2022-07-10T10:18:47;-26833.78;;;23.16;37.96
21664;BME280;10993;52.510;13.456;2022-07-10T10:24:06;-26847.91;;;23.64;35.73
21664;BME280;10993;52.510;13.456;2022-07-10T10:29:08;-26832.41;;;23.12;36.76
21664;BME280;10993;52.510;13.456;2022-07-10T10:34:10;-26801.81;;;22.09;38.16
21664;BME280;10993;52.510;13.456;2022-07-10T10:39:11;-26812.28;;;22.44;38.12
21664;BME280;10993;52.510;13.456;2022-07-10T10:44:27;-26862.00;;;24.11;36.14
21664;BME280;10993;52.510;13.456;2022-07-10T10:50:03;-26856.94;;;23.94;34.51
21664;BME280;10993;52.510;13.456;2022-07-10T10:55:06;-26864.16;;;24.18;34.45
21664;BME280;10993;52.510;13.456;2022-07-10T11:00:12;-26853.72;;;23.83;33.05
21664;BME280;10993;52.510;13.456;2022-07-10T11:05:39;-26883.00;;;24.82;32.88
21664;BME280;10993;52.510;13.456;2022-07-10T11:10:43;-26873.34;;;24.49;33.11
21664;BME280;10993;52.510;13.456;2022-07-10T11:15:47;-26865.22;;;24.22;32.72
21664;BME280;10993;52.510;13.456;2022-07-10T11:20:50;-26855.88;;;23.91;34.63
21664;BME280;10993;52.510;13.456;2022-07-10T11:25:53;-26855.72;;;23.90;34.86
21664;BME280;10993;52.510;13.456;2022-07-10T11:31:09;-26911.28;;;25.77;31.25
21664;BME280;10993;52.510;13.456;2022-07-10T11:36:10;-26905.94;;;25.59;32.55
21664;BME280;10993;52.510;13.456;2022-07-10T11:41:17;-26866.16;;;24.25;33.89
21664;BME280;10993;52.510;13.456;2022-07-10T11:46:20;-26859.88;;;24.04;34.27
21664;BME280;10993;52.510;13.456;2022-07-10T11:51:23;-26893.09;;;25.16;32.77
21664;BME280;10993;52.510;13.456;2022-07-10T11:56:28;-26885.91;;;24.92;32.90
21664;BME280;10993;52.510;13.456;2022-07-10T12:01:32;-27000.56;;;28.79;27.60
21664;BME280;10993;52.510;13.456;2022-07-10T12:06:37;-26944.28;;;26.89;29.87
21664;BME280;10993;52.510;13.456;2022-07-10T12:11:38;-26890.19;;;25.06;32.35
21664;BME280;10993;52.510;13.456;2022-07-10T12:16:40;-26846.53;;;23.59;34.61
21664;BME280;10993;52.510;13.456;2022-07-10T12:21:45;-26857.09;;;23.95;33.68
21664;BME280;10993;52.510;13.456;2022-07-10T12:26:46;-26850.06;;;23.71;34.42
21664;BME280;10993;52.510;13.456;2022-07-10T12:31:49;-26849.13;;;23.68;34.58
21664;BME280;10993;52.510;13.456;2022-07-10T12:36:53;-26858.66;;;24.00;34.67
21664;BME280;10993;52.510;13.456;2022-07-10T12:41:56;-26827.34;;;22.95;35.93
21664;BME280;10993;52.510;13.456;2022-07-10T12:47:01;-26810.13;;;22.37;37.41
21664;BME280;10993;52.510;13.456;2022-07-10T12:52:02;-26833.78;;;23.16;36.61
21664;BME280;10993;52.510;13.456;2022-07-10T12:57:03;-26853.88;;;23.84;34.82
21664;BME280;10993;52.510;13.456;2022-07-10T13:02:17;-26846.81;;;23.60;34.83
21664;BME280;10993;52.510;13.456;2022-07-10T13:07:17;-26840.22;;;23.38;36.99
21664;BME280;10993;52.510;13.456;2022-07-10T13:12:18;-26838.09;;;23.31;36.74
21664;BME280;10993;52.510;13.456;2022-07-10T13:17:19;-26827.63;;;22.96;36.76
21664;BME280;10993;52.510;13.456;2022-07-10T13:22:20;-26835.78;;;23.23;36.71
21664;BME280;10993;52.510;13.456;2022-07-10T13:27:20;-26830.72;;;23.06;36.70
21664;BME280;10993;52.510;13.456;2022-07-10T13:32:22;-26829.63;;;23.02;36.77
21664;BME280;10993;52.510;13.456;2022-07-10T13:37:22;-26842.84;;;23.47;35.50
21664;BME280;10993;52.510;13.456;2022-07-10T13:42:23;-26845.75;;;23.57;35.24
21664;BME280;10993;52.510;13.456;2022-07-10T13:47:25;-26852.34;;;23.79;34.39
21664;BME280;10993;52.510;13.456;2022-07-10T13:52:28;-26852.50;;;23.79;35.03
21664;BME280;10993;52.510;13.456;2022-07-10T13:57:29;-26850.50;;;23.73;35.07
21664;BME280;10993;52.510;13.456;2022-07-10T14:02:30;-26847.75;;;23.63;36.88
21664;BME280;10993;52.510;13.456;2022-07-10T14:07:30;-26837.78;;;23.30;35.93
21664;BME280;10993;52.510;13.456;2022-07-10T14:12:31;-26828.56;;;22.99;36.13
21664;BME280;10993;52.510;13.456;2022-07-10T14:17:33;-26822.09;;;22.77;37.03
21664;BME280;10993;52.510;13.456;2022-07-10T14:22:33;-26832.56;;;23.12;36.72
21664;BME280;10993;52.510;13.456;2022-07-10T14:27:34;-26832.41;;;23.12;35.71
21664;BME280;10993;52.510;13.456;2022-07-10T14:32:35;-26815.03;;;22.54;37.53
21664;BME280;10993;52.510;13.456;2022-07-10T14:37:36;-26795.34;;;21.88;38.14
21664;BME280;10993;52.510;13.456;2022-07-10T14:42:36;-26787.34;;;21.61;39.40
21664;BME280;10993;52.510;13.456;2022-07-10T14:47:39;-26779.00;;;21.33;38.84
21664;BME280;10993;52.510;13.456;2022-07-10T14:52:39;-26768.38;;;20.97;37.98
21664;BME280;10993;52.510;13.456;2022-07-10T14:57:40;-26766.84;;;20.92;39.02
21664;BME280;10993;52.510;13.456;2022-07-10T15:02:41;-26785.34;;;21.54;38.90
21664;BME280;10993;52.510;13.456;2022-07-10T15:07:42;-26782.09;;;21.43;38.31
21664;BME280;10993;52.510;13.456;2022-07-10T15:12:42;-26777.78;;;21.29;38.37
21664;BME280;10993;52.510;13.456;2022-07-10T15:17:45;-26785.63;;;21.55;38.42
21664;BME280;10993;52.510;13.456;2022-07-10T15:22:45;-26787.34;;;21.61;38.13
21664;BME280;10993;52.510;13.456;2022-07-10T15:27:46;-26791.94;;;21.76;38.33
21664;BME280;10993;52.510;13.456;2022-07-10T15:32:48;-26799.97;;;22.03;36.90
21664;BME280;10993;52.510;13.456;2022-07-10T15:37:48;-26802.72;;;22.12;36.77
21664;BME280;10993;52.510;13.456;2022-07-10T15:42:48;-26803.66;;;22.15;36.22
21664;BME280;10993;52.510;13.456;2022-07-10T15:47:50;-26806.56;;;22.25;36.32
21664;BME280;10993;52.510;13.456;2022-07-10T15:52:50;-26809.50;;;22.35;36.44
21664;BME280;10993;52.510;13.456;2022-07-10T15:57:51;-26804.72;;;22.19;36.41
21664;BME280;10993;52.510;13.456;2022-07-10T16:02:52;-26814.72;;;22.52;36.52
21664;BME280;10993;52.510;13.456;2022-07-10T16:07:53;-26809.50;;;22.35;37.15
21664;BME280;10993;52.510;13.456;2022-07-10T16:12:54;-26811.50;;;22.42;36.54
21664;BME280;10993;52.510;13.456;2022-07-10T16:17:55;-26802.56;;;22.12;37.12
21664;BME280;10993;52.510;13.456;2022-07-10T16:22:56;-26788.72;;;21.65;37.88
21664;BME280;10993;52.510;13.456;2022-07-10T16:27:56;-26782.88;;;21.46;38.31
21664;BME280;10993;52.510;13.456;2022-07-10T16:32:58;-26765.59;;;20.88;39.83
21664;BME280;10993;52.510;13.456;2022-07-10T16:37:58;-26767.59;;;20.95;40.37
21664;BME280;10993;52.510;13.456;2022-07-10T16:42:59;-26774.09;;;21.16;39.53
21664;BME280;10993;52.510;13.456;2022-07-10T16:48:01;-26774.09;;;21.16;40.46
21664;BME280;10993;52.510;13.456;2022-07-10T16:53:01;-26776.25;;;21.24;39.74
21664;BME280;10993;52.510;13.456;2022-07-10T16:58:02;-26782.56;;;21.45;38.76
21664;BME280;10993;52.510;13.456;2022-07-10T17:03:04;-26787.94;;;21.63;38.68
21664;BME280;10993;52.510;13.456;2022-07-10T17:08:04;-26782.56;;;21.45;38.47
21664;BME280;10993;52.510;13.456;2022-07-10T17:13:08;-26778.09;;;21.30;38.56
21664;BME280;10993;52.510;13.456;2022-07-10T17:18:09;-26765.75;;;20.89;39.42
21664;BME280;10993;52.510;13.456;2022-07-10T17:23:10;-26770.06;;;21.03;39.05
21664;BME280;10993;52.510;13.456;2022-07-10T17:28:10;-26770.22;;;21.04;38.97
21664;BME280;10993;52.510;13.456;2022-07-10T17:33:13;-26769.47;;;21.01;39.49
21664;BME280;10993;52.510;13.456;2022-07-10T17:38:14;-26768.84;;;20.99;39.91
21664;BME280;10993;52.510;13.456;2022-07-10T17:43:18;-26749.56;;;20.34;40.38
21664;BME280;10993;52.510;13.456;2022-07-10T17:48:20;-26740.75;;;20.05;42.02
21664;BME280;10993;52.510;13.456;2022-07-10T17:53:20;-26729.00;;;19.66;43.03
21664;BME280;10993;52.510;13.456;2022-07-10T17:58:20;-26731.34;;;19.74;43.21
21664;BME280;10993;52.510;13.456;2022-07-10T18:03:24;-26732.25;;;19.77;42.55
21664;BME280;10993;52.510;13.456;2022-07-10T18:08:25;-26736.44;;;19.91;43.14
21664;BME280;10993;52.510;13.456;2022-07-10T18:13:25;-26732.72;;;19.78;43.31
21664;BME280;10993;52.510;13.456;2022-07-10T18:18:27;-26729.78;;;19.68;43.27
21664;BME280;10993;52.510;13.456;2022-07-10T18:23:27;-26730.25;;;19.70;43.96
21664;BME280;10993;52.510;13.456;2022-07-10T18:28:28;-26730.56;;;19.71;44.22
21664;BME280;10993;52.510;13.456;2022-07-10T18:33:30;-26728.41;;;19.64;44.59
21664;BME280;10993;52.510;13.456;2022-07-10T18:38:48;-26724.22;;;19.50;44.44
21664;BME280;10993;52.510;13.456;2022-07-10T18:43:49;-26722.84;;;19.45;44.52
21664;BME280;10993;52.510;13.456;2022-07-10T18:48:50;-26722.69;;;19.45;45.31
21664;BME280;10993;52.510;13.456;2022-07-10T18:53:51;-26716.97;;;19.26;44.79
21664;BME280;10993;52.510;13.456;2022-07-10T18:58:54;-26714.78;;;19.18;46.32
21664;BME280;10993;52.510;13.456;2022-07-10T19:03:56;-26713.56;;;19.14;46.29
21664;BME280;10993;52.510;13.456;2022-07-10T19:08:57;-26707.69;;;18.95;46.82
21664;BME280;10993;52.510;13.456;2022-07-10T19:13:57;-26707.06;;;18.93;46.96
21664;BME280;10993;52.510;13.456;2022-07-10T19:18:59;-26703.50;;;18.81;47.30
21664;BME280;10993;52.510;13.456;2022-07-10T19:23:59;-26696.38;;;18.57;47.91
21664;BME280;10993;52.510;13.456;2022-07-10T19:29:03;-26691.56;;;18.41;48.35
21664;BME280;10993;52.510;13.456;2022-07-10T19:34:05;-26690.34;;;18.37;50.03
21664;BME280;10993;52.510;13.456;2022-07-10T19:39:05;-26684.75;;;18.18;50.89
21664;BME280;10993;52.510;13.456;2022-07-10T19:44:06;-26683.22;;;18.13;51.28
21664;BME280;10993;52.510;13.456;2022-07-10T19:49:07;-26675.44;;;17.88;52.57
21664;BME280;10993;52.510;13.456;2022-07-10T19:54:08;-26671.72;;;17.75;53.14
21664;BME280;10993;52.510;13.456;2022-07-10T19:59:08;-26660.56;;;17.38;54.35
21664;BME280;10993;52.510;13.456;2022-07-10T20:04:10;-26658.88;;;17.32;55.69
21664;BME280;10993;52.510;13.456;2022-07-10T20:09:11;-26652.97;;;17.13;56.78
21664;BME280;10993;52.510;13.456;2022-07-10T20:14:12;-26652.50;;;17.11;57.31
21664;BME280;10993;52.510;13.456;2022-07-10T20:19:13;-26646.75;;;16.92;58.45
21664;BME280;10993;52.510;13.456;2022-07-10T20:24:14;-26638.22;;;16.64;60.02
21664;BME280;10993;52.510;13.456;2022-07-10T20:29:14;-26632.16;;;16.44;61.18
21664;BME280;10993;52.510;13.456;2022-07-10T20:34:16;-26629.50;;;16.35;61.84
21664;BME280;10993;52.510;13.456;2022-07-10T20:39:16;-26627.16;;;16.27;63.19
21664;BME280;10993;52.510;13.456;2022-07-10T20:44:17;-26623.59;;;16.15;63.66
21664;BME280;10993;52.510;13.456;2022-07-10T20:49:18;-26620.03;;;16.03;63.99
21664;BME280;10993;52.510;13.456;2022-07-10T20:54:18;-26617.69;;;15.96;64.89
21664;BME280;10993;52.510;13.456;2022-07-10T20:59:19;-26605.25;;;15.55;66.31
21664;BME280;10993;52.510;13.456;2022-07-10T21:04:21;-26604.31;;;15.51;67.22
21664;BME280;10993;52.510;13.456;2022-07-10T21:09:21;-26602.91;;;15.47;67.79
21664;BME280;10993;52.510;13.456;2022-07-10T21:14:21;-26602.13;;;15.44;68.30
21664;BME280;10993;52.510;13.456;2022-07-10T21:19:23;-26593.72;;;15.16;68.84
21664;BME280;10993;52.510;13.456;2022-07-10T21:24:23;-26595.13;;;15.21;69.57
21664;BME280;10993;52.510;13.456;2022-07-10T21:29:24;-26596.53;;;15.26;70.11
21664;BME280;10993;52.510;13.456;2022-07-10T21:34:26;-26596.06;;;15.24;70.15
21664;BME280;10993;52.510;13.456;2022-07-10T21:39:26;-26594.97;;;15.20;70.27
21664;BME280;10993;52.510;13.456;2022-07-10T21:44:26;-26594.19;;;15.18;70.12
21664;BME280;10993;52.510;13.456;2022-07-10T21:49:28;-26593.72;;;15.16;70.97
21664;BME280;10993;52.510;13.456;2022-07-10T21:54:28;-26587.50;;;14.96;70.83
21664;BME280;10993;52.510;13.456;2022-07-10T21:59:29;-26601.03;;;15.41;70.25
21664;BME280;10993;52.510;13.456;2022-07-10T22:04:30;-26607.56;;;15.62;68.66
21664;BME280;10993;52.510;13.456;2022-07-10T22:09:31;-26615.34;;;15.88;67.30
21664;BME280;10993;52.510;13.456;2022-07-10T22:14:31;-26625.16;;;16.20;66.10
21664;BME280;10993;52.510;13.456;2022-07-10T22:19:33;-26628.25;;;16.31;65.65
21664;BME280;10993;52.510;13.456;2022-07-10T22:24:33;-26632.31;;;16.44;64.58
21664;BME280;10993;52.510;13.456;2022-07-10T22:29:34;-26636.34;;;16.58;64.16
21664;BME280;10993;52.510;13.456;2022-07-10T22:34:36;-26632.31;;;16.44;63.88
21664;BME280;10993;52.510;13.456;2022-07-10T22:39:36;-26628.88;;;16.33;64.57
21664;BME280;10993;52.510;13.456;2022-07-10T22:44:36;-26635.25;;;16.54;64.50
21664;BME280;10993;52.510;13.456;2022-07-10T22:49:38;-26634.31;;;16.51;65.64
21664;BME280;10993;52.510;13.456;2022-07-10T22:54:39;-26632.63;;;16.45;65.86
21664;BME280;10993;52.510;13.456;2022-07-10T22:59:39;-26621.72;;;16.09;66.69
21664;BME280;10993;52.510;13.456;2022-07-10T23:04:41;-26629.97;;;16.36;66.65
21664;BME280;10993;52.510;13.456;2022-07-10T23:09:41;-26627.47;;;16.28;67.95
21664;BME280;10993;52.510;13.456;2022-07-10T23:14:41;-26627.78;;;16.29;67.72
21664;BME280;10993;52.510;13.456;2022-07-10T23:19:43;-26631.06;;;16.40;67.80
21664;BME280;10993;52.510;13.456;2022-07-10T23:24:44;-26630.75;;;16.39;68.10
21664;BME280;10993;52.510;13.456;2022-07-10T23:29:44;-26634.00;;;16.50;68.41
21664;BME280;10993;52.510;13.456;2022-07-10T23:34:46;-26634.16;;;16.50;68.34
21664;BME280;10993;52.510;13.456;2022-07-10T23:39:46;-26631.69;;;16.42;69.07
21664;BME280;10993;52.510;13.456;2022-07-10T23:44:47;-26632.31;;;16.44;69.35
21664;BME280;10993;52.510;13.456;2022-07-10T23:49:48;-26630.44;;;16.38;70.21
21664;BME280;10993;52.510;13.456;2022-07-10T23:55:08;-26630.13;;;16.37;70.19
